createdAt,value
2022-07-29T00:01:46.806Z,80.98
2022-07-29T00:04:16.434Z,81.26
2022-07-29T00:06:46.142Z,81.06
2022-07-29T00:09:15.644Z,82.16
2022-07-29T00:11:45.043Z,81.36
2022-07-29T00:14:14.843Z,82.30
2022-07-29T00:16:46.871Z,81.82
2022-07-29T00:19:16.327Z,82.12
2022-07-29T00:21:45.818Z,82.00
2022-07-29T00:24:15.731Z,81.75
2022-07-29T00:26:45.607Z,81.64
2022-07-29T00:29:33.563Z,81.02
2022-07-29T00:32:03.720Z,81.76
2022-07-29T00:34:46.157Z,81.66
2022-07-29T00:37:15.566Z,81.88
2022-07-29T00:39:45.635Z,82.71
2022-07-29T00:42:15.012Z,82.29
2022-07-29T00:44:46.311Z,81.81
2022-07-29T00:47:15.878Z,81.31
2022-07-29T00:49:46.151Z,81.02
2022-07-29T00:52:16.974Z,81.34
2022-07-29T00:54:46.878Z,81.81
2022-07-29T00:57:16.516Z,81.65
2022-07-29T00:59:46.042Z,83.23
2022-07-29T01:02:15.544Z,84.00
2022-07-29T01:04:45.064Z,84.66
2022-07-29T01:07:17.711Z,85.20
2022-07-29T01:09:48.461Z,85.78
2022-07-29T01:12:21.971Z,89.17
2022-07-29T01:14:52.947Z,99.47
2022-07-29T01:17:30.820Z,100.00
2022-07-29T01:20:20.343Z,100.00
2022-07-29T01:23:12.192Z,100.00
2022-07-29T01:25:59.554Z,100.00
2022-07-29T01:28:47.032Z,100.00
2022-07-29T01:31:25.391Z,100.00
2022-07-29T01:34:02.445Z,100.00
2022-07-29T01:36:41.612Z,100.00
2022-07-29T01:39:36.224Z,100.00
2022-07-29T01:42:16.385Z,100.00
2022-07-29T01:44:54.288Z,100.00
2022-07-29T01:47:29.280Z,100.00
2022-07-29T01:50:02.002Z,100.00
2022-07-29T01:52:50.715Z,100.00
2022-07-29T01:55:23.620Z,100.00
2022-07-29T01:57:53.431Z,100.00
2022-07-29T02:00:24.051Z,100.00
2022-07-29T02:02:57.740Z,100.00
2022-07-29T02:05:30.106Z,100.00
2022-07-29T02:08:02.196Z,100.00
2022-07-29T02:10:35.019Z,100.00
2022-07-29T02:13:06.713Z,100.00
2022-07-29T02:15:38.156Z,100.00
2022-07-29T02:18:15.512Z,100.00
2022-07-29T02:20:49.702Z,100.00
2022-07-29T02:23:25.015Z,100.00
2022-07-29T02:26:00.635Z,100.00
2022-07-29T02:28:32.328Z,100.00
2022-07-29T02:31:04.484Z,100.00
2022-07-29T02:33:35.267Z,100.00
2022-07-29T02:36:05.630Z,100.00
2022-07-29T02:38:48.219Z,100.00
2022-07-29T02:41:41.754Z,100.00
2022-07-29T02:44:18.162Z,100.00
2022-07-29T02:46:55.679Z,100.00
2022-07-29T02:49:25.131Z,100.00
2022-07-29T02:52:12.433Z,100.00
2022-07-29T02:54:55.343Z,100.00
2022-07-29T02:57:35.611Z,100.00
2022-07-29T03:00:25.705Z,100.00
2022-07-29T03:02:58.672Z,100.00
2022-07-29T03:05:28.226Z,100.00
2022-07-29T03:08:09.470Z,100.00
2022-07-29T03:10:43.425Z,100.00
2022-07-29T03:13:14.160Z,100.00
2022-07-29T03:15:45.950Z,100.00
2022-07-29T03:18:16.050Z,100.00
2022-07-29T03:20:45.883Z,100.00
2022-07-29T03:23:15.253Z,100.00
2022-07-29T03:25:44.567Z,100.00
2022-07-29T03:28:13.895Z,100.00
2022-07-29T03:30:45.707Z,100.00
2022-07-29T03:33:15.717Z,100.00
2022-07-29T03:35:45.144Z,100.00
2022-07-29T03:38:16.807Z,100.00
2022-07-29T03:40:56.721Z,100.00
2022-07-29T03:43:28.629Z,100.00
2022-07-29T03:45:58.958Z,100.00
2022-07-29T03:48:30.407Z,100.00
2022-07-29T03:51:00.267Z,100.00
2022-07-29T03:53:29.660Z,100.00
2022-07-29T03:56:03.336Z,100.00
2022-07-29T03:58:35.120Z,100.00
2022-07-29T04:01:04.700Z,100.00
2022-07-29T04:03:34.204Z,100.00
2022-07-29T04:06:06.891Z,100.00
2022-07-29T04:08:37.783Z,100.00
2022-07-29T04:11:08.171Z,100.00
2022-07-29T04:13:37.605Z,100.00
2022-07-29T04:16:07.294Z,100.00
2022-07-29T04:18:36.710Z,100.00
2022-07-29T04:21:06.519Z,100.00
2022-07-29T04:23:36.070Z,100.00
2022-07-29T04:26:23.691Z,100.00
2022-07-29T04:28:52.960Z,100.00
2022-07-29T04:31:25.762Z,100.00
2022-07-29T04:33:55.348Z,100.00
2022-07-29T04:36:28.863Z,100.00
2022-07-29T04:38:59.057Z,100.00
2022-07-29T04:41:32.995Z,100.00
2022-07-29T04:44:07.103Z,100.00
2022-07-29T04:46:41.865Z,100.00
2022-07-29T04:49:14.225Z,100.00
2022-07-29T04:51:43.602Z,100.00
2022-07-29T04:54:13.124Z,100.00
2022-07-29T04:56:42.782Z,100.00
2022-07-29T04:59:12.607Z,100.00
2022-07-29T05:01:42.748Z,100.00
2022-07-29T05:04:12.355Z,100.00
2022-07-29T05:06:41.868Z,100.00
2022-07-29T05:09:13.849Z,100.00
2022-07-29T05:11:43.181Z,100.00
2022-07-29T05:14:12.692Z,100.00
2022-07-29T05:16:43.030Z,100.00
2022-07-29T05:19:14.579Z,100.00
2022-07-29T05:21:44.608Z,100.00
2022-07-29T05:24:14.851Z,100.00
2022-07-29T05:26:45.577Z,100.00
2022-07-29T05:29:43.736Z,100.00
2022-07-29T05:32:04.418Z,100.00
2022-07-29T05:34:34.238Z,100.00
2022-07-29T05:37:03.780Z,100.00
2022-07-29T05:39:47.300Z,100.00
2022-07-29T05:42:19.831Z,100.00
2022-07-29T05:44:49.180Z,100.00
2022-07-29T05:47:18.586Z,100.00
2022-07-29T05:49:47.945Z,100.00
2022-07-29T05:52:20.105Z,100.00
2022-07-29T05:54:49.449Z,100.00
2022-07-29T05:57:23.005Z,100.00
2022-07-29T05:59:53.408Z,100.00
2022-07-29T06:02:23.052Z,100.00
2022-07-29T06:04:52.661Z,100.00
2022-07-29T06:07:22.075Z,100.00
2022-07-29T06:09:51.513Z,100.00
2022-07-29T06:12:20.919Z,100.00
2022-07-29T06:14:54.101Z,100.00
2022-07-29T06:17:23.663Z,100.00
2022-07-29T06:19:53.056Z,100.00
2022-07-29T06:22:22.469Z,100.00
2022-07-29T06:24:51.933Z,100.00
2022-07-29T06:27:21.333Z,100.00
2022-07-29T06:29:50.615Z,100.00
2022-07-29T06:32:20.172Z,100.00
2022-07-29T06:34:52.235Z,100.00
2022-07-29T06:37:23.135Z,100.00
2022-07-29T06:40:14.828Z,100.00
2022-07-29T06:42:47.564Z,100.00
2022-07-29T06:45:17.175Z,100.00
2022-07-29T06:47:46.560Z,100.00
2022-07-29T06:50:16.120Z,100.00
2022-07-29T06:52:45.529Z,100.00
2022-07-29T06:55:25.156Z,100.00
2022-07-29T06:57:55.080Z,100.00
2022-07-29T07:00:24.469Z,100.00
2022-07-29T07:02:53.978Z,100.00
2022-07-29T07:05:23.422Z,100.00
2022-07-29T07:07:55.319Z,100.00
2022-07-29T07:10:24.704Z,100.00
2022-07-29T07:12:54.137Z,100.00
2022-07-29T07:15:38.517Z,100.00
2022-07-29T07:18:09.866Z,100.00
2022-07-29T07:20:42.280Z,100.00
2022-07-29T07:23:12.159Z,100.00
2022-07-29T07:25:43.849Z,100.00
2022-07-29T07:28:14.607Z,100.00
2022-07-29T07:30:44.586Z,100.00
2022-07-29T07:33:13.922Z,100.00
2022-07-29T07:35:43.525Z,100.00
2022-07-29T07:38:12.824Z,100.00
2022-07-29T07:40:42.423Z,100.00
2022-07-29T07:43:11.803Z,100.00
2022-07-29T07:45:41.243Z,100.00
2022-07-29T07:48:11.236Z,100.00
2022-07-29T07:50:40.924Z,100.00
2022-07-29T07:53:10.475Z,100.00
2022-07-29T07:56:09.387Z,100.00
2022-07-29T07:58:37.268Z,100.00
2022-07-29T08:01:07.386Z,100.00
2022-07-29T08:03:37.004Z,100.00
2022-07-29T08:06:07.583Z,100.00
2022-07-29T08:08:37.106Z,100.00
2022-07-29T08:11:09.672Z,100.00
2022-07-29T08:13:42.849Z,100.00
2022-07-29T08:16:16.614Z,100.00
2022-07-29T08:18:47.301Z,100.00
2022-07-29T08:21:18.674Z,100.00
2022-07-29T08:23:59.792Z,100.00
2022-07-29T08:26:31.222Z,100.00
2022-07-29T08:29:00.542Z,100.00
2022-07-29T08:31:29.871Z,100.00
2022-07-29T08:34:00.860Z,100.00
2022-07-29T08:36:30.249Z,100.00
2022-07-29T08:38:59.938Z,100.00
2022-07-29T08:41:29.762Z,100.00
2022-07-29T08:43:59.208Z,100.00
2022-07-29T08:46:28.527Z,100.00
2022-07-29T08:48:59.104Z,100.00
2022-07-29T08:51:29.233Z,100.00
2022-07-29T08:53:58.928Z,100.00
2022-07-29T08:56:28.269Z,100.00
2022-07-29T08:58:58.400Z,100.00
2022-07-29T09:01:35.827Z,100.00
2022-07-29T09:04:09.174Z,100.00
2022-07-29T09:06:42.959Z,100.00
2022-07-29T09:09:12.948Z,100.00
2022-07-29T09:11:47.947Z,100.00
2022-07-29T09:14:17.539Z,100.00
2022-07-29T09:17:01.394Z,100.00
2022-07-29T09:19:35.253Z,100.00
2022-07-29T09:22:07.612Z,100.00
2022-07-29T09:24:48.503Z,100.00
2022-07-29T09:27:20.975Z,100.00
2022-07-29T09:29:51.140Z,100.00
2022-07-29T09:32:20.932Z,100.00
2022-07-29T09:34:50.269Z,100.00
2022-07-29T09:37:32.696Z,100.00
2022-07-29T09:40:01.979Z,100.00
2022-07-29T09:42:34.914Z,100.00
2022-07-29T09:45:04.331Z,100.00
2022-07-29T09:47:50.271Z,100.00
2022-07-29T09:50:24.598Z,100.00
2022-07-29T09:52:56.000Z,100.00
2022-07-29T09:55:25.459Z,100.00
2022-07-29T09:57:55.424Z,100.00
2022-07-29T10:00:26.449Z,100.00
2022-07-29T10:03:03.844Z,100.00
2022-07-29T10:05:36.485Z,100.00
2022-07-29T10:08:06.927Z,100.00
2022-07-29T10:10:42.462Z,100.00
2022-07-29T10:13:17.002Z,100.00
2022-07-29T10:15:51.902Z,100.00
2022-07-29T10:18:21.542Z,100.00
2022-07-29T10:20:51.931Z,100.00
2022-07-29T10:23:21.393Z,100.00
2022-07-29T10:25:50.802Z,100.00
2022-07-29T10:28:20.171Z,100.00
2022-07-29T10:30:53.440Z,100.00
2022-07-29T10:33:37.856Z,100.00
2022-07-29T10:36:19.398Z,100.00
2022-07-29T10:39:22.357Z,100.00
2022-07-29T10:42:17.051Z,100.00
2022-07-29T10:44:50.512Z,100.00
2022-07-29T10:47:27.690Z,100.00
2022-07-29T10:50:06.117Z,100.00
2022-07-29T10:52:53.672Z,100.00
2022-07-29T10:55:45.651Z,100.00
2022-07-29T10:58:25.301Z,100.00
2022-07-29T11:00:57.651Z,100.00
2022-07-29T11:03:57.160Z,100.00
2022-07-29T11:06:28.081Z,99.16
2022-07-29T11:09:34.990Z,100.00
2022-07-29T11:12:07.182Z,95.32
2022-07-29T11:14:57.356Z,97.14
2022-07-29T11:17:27.527Z,97.71
2022-07-29T11:20:42.861Z,98.03
2022-07-29T11:23:27.977Z,87.50
2022-07-29T11:26:18.885Z,86.62
2022-07-29T11:28:55.737Z,91.50
2022-07-29T11:31:55.856Z,94.96
2022-07-29T11:34:34.780Z,98.51
2022-07-29T11:37:13.738Z,90.66
2022-07-29T11:39:50.915Z,89.98
2022-07-29T11:42:32.435Z,82.63
2022-07-29T11:45:41.150Z,82.42
2022-07-29T11:48:28.431Z,84.43
2022-07-29T11:50:51.850Z,88.20
2022-07-29T11:53:21.262Z,86.56
2022-07-29T11:55:58.625Z,86.44
2022-07-29T11:58:28.457Z,86.18
2022-07-29T12:00:58.542Z,83.41
2022-07-29T12:03:36.855Z,81.21
2022-07-29T12:06:17.439Z,79.87
2022-07-29T12:08:48.412Z,76.28
2022-07-29T12:11:24.715Z,80.19
2022-07-29T12:13:55.311Z,75.35
2022-07-29T12:16:29.364Z,75.95
2022-07-29T12:19:04.163Z,79.76
2022-07-29T12:21:59.365Z,75.88
2022-07-29T12:24:29.919Z,79.92
2022-07-29T12:27:02.685Z,74.60
2022-07-29T12:29:33.808Z,72.41
2022-07-29T12:32:14.845Z,74.14
2022-07-29T12:34:48.996Z,71.67
2022-07-29T12:37:18.591Z,73.34
2022-07-29T12:39:48.094Z,74.49
2022-07-29T12:42:19.244Z,72.01
2022-07-29T12:44:50.381Z,71.24
2022-07-29T12:47:21.811Z,70.92
2022-07-29T12:49:52.463Z,70.21
2022-07-29T12:52:34.474Z,68.09
2022-07-29T12:55:04.617Z,66.42
2022-07-29T12:57:34.441Z,65.74
2022-07-29T13:00:13.671Z,65.91
2022-07-29T13:02:46.519Z,64.40
2022-07-29T13:05:17.275Z,62.93
2022-07-29T13:07:55.130Z,61.04
2022-07-29T13:10:27.186Z,59.44
2022-07-29T13:13:13.084Z,56.53
2022-07-29T13:15:45.238Z,56.74
2022-07-29T13:18:34.759Z,57.03
2022-07-29T13:21:18.955Z,55.25
2022-07-29T13:23:48.503Z,56.89
2022-07-29T13:26:29.678Z,58.36
2022-07-29T13:28:59.536Z,55.96
2022-07-29T13:31:29.051Z,55.05
2022-07-29T13:33:58.401Z,52.60
2022-07-29T13:36:27.834Z,54.67
2022-07-29T13:38:57.681Z,53.98
2022-07-29T13:41:27.054Z,53.27
2022-07-29T13:43:56.382Z,52.99
2022-07-29T13:46:25.775Z,51.52
2022-07-29T13:48:55.228Z,54.12
2022-07-29T13:51:24.808Z,53.90
2022-07-29T13:53:54.114Z,51.91
2022-07-29T13:56:23.435Z,55.01
2022-07-29T13:58:53.107Z,54.90
2022-07-29T14:01:22.504Z,53.93
2022-07-29T14:03:52.009Z,55.18
2022-07-29T14:06:22.319Z,53.86
2022-07-29T14:08:51.709Z,54.48
2022-07-29T14:11:21.116Z,54.91
2022-07-29T14:13:50.389Z,54.64
2022-07-29T14:16:19.814Z,54.72
2022-07-29T14:18:49.122Z,54.14
2022-07-29T14:21:18.463Z,53.94
2022-07-29T14:23:49.151Z,53.87
2022-07-29T14:26:21.402Z,54.06
2022-07-29T14:28:55.444Z,51.64
2022-07-29T14:31:24.878Z,52.78
2022-07-29T14:33:54.218Z,53.22
2022-07-29T14:36:23.688Z,53.25
2022-07-29T14:38:53.431Z,52.63
2022-07-29T14:41:22.771Z,53.57
2022-07-29T14:43:53.863Z,52.79
2022-07-29T14:46:23.326Z,54.40
2022-07-29T14:48:52.782Z,52.39
2022-07-29T14:51:22.432Z,53.90
2022-07-29T14:53:51.840Z,53.56
2022-07-29T14:56:36.493Z,54.37
2022-07-29T14:59:06.896Z,53.86
2022-07-29T15:01:36.348Z,54.14
2022-07-29T15:04:06.018Z,54.78
2022-07-29T15:06:35.412Z,55.27
2022-07-29T15:09:04.766Z,55.40
2022-07-29T15:11:37.015Z,55.39
2022-07-29T15:14:07.950Z,56.30
2022-07-29T15:16:41.994Z,55.85
2022-07-29T15:19:14.213Z,54.86
2022-07-29T15:21:48.386Z,55.46
2022-07-29T15:24:22.526Z,55.37
2022-07-29T15:26:51.887Z,56.53
2022-07-29T15:29:22.823Z,56.63
2022-07-29T15:31:52.511Z,56.21
2022-07-29T15:34:21.898Z,57.04
2022-07-29T15:36:52.831Z,57.12
2022-07-29T15:39:23.284Z,58.85
2022-07-29T15:41:53.507Z,59.48
2022-07-29T15:44:23.860Z,57.41
2022-07-29T15:47:08.963Z,56.87
2022-07-29T15:49:46.412Z,57.93
2022-07-29T15:52:16.323Z,58.48
2022-07-29T15:54:45.719Z,57.30
2022-07-29T15:57:15.310Z,57.24
2022-07-29T15:59:44.612Z,56.97
2022-07-29T16:02:13.895Z,54.39
2022-07-29T16:04:43.187Z,55.12
2022-07-29T16:07:12.532Z,55.89
2022-07-29T16:09:46.236Z,54.97
2022-07-29T16:12:24.128Z,53.25
2022-07-29T16:14:53.512Z,53.32
2022-07-29T16:17:22.948Z,54.98
2022-07-29T16:19:53.379Z,54.21
2022-07-29T16:22:22.665Z,52.27
2022-07-29T16:24:51.979Z,54.00
2022-07-29T16:27:27.061Z,53.13
2022-07-29T16:30:04.984Z,53.06
2022-07-29T16:32:34.663Z,53.50
2022-07-29T16:35:05.513Z,54.85
2022-07-29T16:37:37.221Z,54.38
2022-07-29T16:40:07.790Z,54.59
2022-07-29T16:42:47.011Z,52.36
2022-07-29T16:45:18.172Z,53.50
2022-07-29T16:47:50.884Z,52.86
2022-07-29T16:50:20.638Z,54.63
2022-07-29T16:52:49.970Z,53.95
2022-07-29T16:55:19.352Z,53.94
2022-07-29T16:57:48.651Z,54.50
2022-07-29T17:00:19.557Z,54.50
2022-07-29T17:02:49.078Z,54.56
2022-07-29T17:05:18.543Z,54.19
2022-07-29T17:07:48.426Z,55.67
2022-07-29T17:10:17.803Z,56.17
2022-07-29T17:12:47.863Z,57.16
2022-07-29T17:15:18.554Z,58.43
2022-07-29T17:17:55.174Z,58.99
2022-07-29T17:20:26.790Z,60.38
2022-07-29T17:22:56.923Z,59.72
2022-07-29T17:25:26.358Z,60.29
2022-07-29T17:28:00.522Z,60.51
2022-07-29T17:30:30.379Z,61.29
2022-07-29T17:32:59.776Z,62.08
2022-07-29T17:35:41.648Z,63.39
2022-07-29T17:38:11.061Z,64.03
2022-07-29T17:40:43.066Z,65.27
2022-07-29T17:43:12.339Z,65.69
2022-07-29T17:45:48.714Z,65.79
2022-07-29T17:48:20.843Z,67.09
2022-07-29T17:50:51.108Z,66.69
2022-07-29T17:53:20.491Z,67.24
2022-07-29T17:55:51.266Z,65.83
2022-07-29T17:58:20.684Z,65.74
2022-07-29T18:00:52.910Z,66.87
2022-07-29T18:03:22.993Z,66.77
2022-07-29T18:05:52.401Z,65.82
2022-07-29T18:08:22.297Z,67.94
2022-07-29T18:10:51.698Z,66.93
2022-07-29T18:13:21.681Z,65.18
2022-07-29T18:15:51.244Z,64.41
2022-07-29T18:18:20.988Z,62.84
2022-07-29T18:20:50.499Z,63.24
2022-07-29T18:23:19.827Z,63.96
2022-07-29T18:25:49.180Z,63.91
2022-07-29T18:28:18.679Z,63.47
2022-07-29T18:30:48.114Z,63.96
2022-07-29T18:33:21.822Z,65.11
2022-07-29T18:36:10.079Z,65.17
2022-07-29T18:38:42.306Z,66.70
2022-07-29T18:41:11.959Z,66.74
2022-07-29T18:43:41.976Z,68.51
2022-07-29T18:46:11.315Z,68.65
2022-07-29T18:48:42.198Z,69.70
2022-07-29T18:51:11.892Z,69.87
2022-07-29T18:53:41.230Z,70.41
2022-07-29T18:56:10.585Z,69.82
2022-07-29T18:58:39.902Z,70.50
2022-07-29T19:01:16.491Z,71.42
2022-07-29T19:03:46.198Z,73.35
2022-07-29T19:06:16.043Z,72.27
2022-07-29T19:08:45.535Z,74.03
2022-07-29T19:11:15.347Z,75.69
2022-07-29T19:13:44.700Z,76.94
2022-07-29T19:16:16.976Z,78.44
2022-07-29T19:18:47.405Z,78.88
2022-07-29T19:21:17.377Z,80.34
2022-07-29T19:24:00.684Z,81.38
2022-07-29T19:26:42.101Z,82.51
2022-07-29T19:29:13.349Z,83.21
2022-07-29T19:31:42.943Z,84.19
2022-07-29T19:34:12.555Z,85.39
2022-07-29T19:36:41.899Z,86.57
2022-07-29T19:39:11.758Z,87.48
2022-07-29T19:41:41.262Z,87.16
2022-07-29T19:44:14.313Z,86.82
2022-07-29T19:46:47.015Z,87.95
2022-07-29T19:49:16.555Z,86.22
2022-07-29T19:51:46.019Z,87.44
2022-07-29T19:54:15.640Z,86.20
2022-07-29T19:56:45.886Z,89.07
2022-07-29T19:59:15.536Z,89.68
2022-07-29T20:01:45.360Z,89.58
2022-07-29T20:04:14.757Z,90.49
2022-07-29T20:06:49.555Z,91.22
2022-07-29T20:09:20.784Z,91.82
2022-07-29T20:11:50.261Z,92.24
2022-07-29T20:14:19.671Z,93.10
2022-07-29T20:16:48.970Z,93.69
2022-07-29T20:19:18.971Z,94.44
2022-07-29T20:21:48.277Z,95.00
2022-07-29T20:24:17.623Z,95.47
2022-07-29T20:26:47.067Z,96.01
2022-07-29T20:29:16.539Z,96.28
2022-07-29T20:31:53.295Z,96.45
2022-07-29T20:34:25.689Z,96.89
2022-07-29T20:36:55.211Z,98.57
2022-07-29T20:39:25.635Z,99.92
2022-07-29T20:41:55.084Z,100.00
2022-07-29T20:44:24.472Z,100.00
2022-07-29T20:46:53.787Z,100.00
2022-07-29T20:49:23.200Z,100.00
2022-07-29T20:51:52.604Z,100.00
2022-07-29T20:54:22.006Z,100.00
2022-07-29T20:56:51.302Z,100.00
2022-07-29T20:59:20.621Z,100.00
2022-07-29T21:01:50.244Z,100.00
2022-07-29T21:04:19.771Z,100.00
2022-07-29T21:06:49.133Z,100.00
2022-07-29T21:09:18.621Z,100.00
2022-07-29T21:11:48.096Z,100.00
2022-07-29T21:14:27.946Z,100.00
2022-07-29T21:16:57.627Z,100.00
2022-07-29T21:19:27.196Z,100.00
2022-07-29T21:21:56.523Z,100.00
2022-07-29T21:24:25.980Z,100.00
2022-07-29T21:27:20.750Z,100.00
2022-07-29T21:29:48.928Z,100.00
2022-07-29T21:32:29.602Z,100.00
2022-07-29T21:35:00.855Z,100.00
2022-07-29T21:37:30.401Z,100.00
2022-07-29T21:40:00.124Z,100.00
2022-07-29T21:42:29.568Z,100.00
2022-07-29T21:44:58.908Z,100.00
2022-07-29T21:47:28.530Z,100.00
2022-07-29T21:49:58.030Z,100.00
2022-07-29T21:52:28.244Z,100.00
2022-07-29T21:54:58.302Z,100.00
2022-07-29T21:57:27.867Z,100.00
2022-07-29T22:00:02.167Z,100.00
2022-07-29T22:02:32.256Z,100.00
2022-07-29T22:05:01.624Z,100.00
2022-07-29T22:07:55.906Z,100.00
2022-07-29T22:10:20.523Z,100.00
2022-07-29T22:12:53.477Z,100.00
2022-07-29T22:15:23.087Z,100.00
2022-07-29T22:17:53.163Z,100.00
2022-07-29T22:20:23.396Z,100.00
2022-07-29T22:22:52.800Z,100.00
2022-07-29T22:25:22.678Z,100.00
2022-07-29T22:27:52.210Z,100.00
2022-07-29T22:30:21.762Z,100.00
2022-07-29T22:32:51.108Z,100.00
2022-07-29T22:35:20.563Z,100.00
2022-07-29T22:37:51.176Z,100.00
2022-07-29T22:40:20.481Z,100.00
2022-07-29T22:42:50.227Z,100.00
2022-07-29T22:45:19.786Z,100.00
2022-07-29T22:47:49.487Z,100.00
2022-07-29T22:50:20.207Z,100.00
2022-07-29T22:52:49.715Z,100.00
2022-07-29T22:55:19.092Z,100.00
2022-07-29T22:57:48.554Z,100.00
2022-07-29T23:00:18.458Z,100.00
2022-07-29T23:02:47.873Z,100.00
2022-07-29T23:05:18.102Z,100.00
2022-07-29T23:07:47.534Z,100.00
2022-07-29T23:10:16.943Z,100.00
2022-07-29T23:12:46.259Z,100.00
2022-07-29T23:15:15.800Z,100.00
2022-07-29T23:17:47.572Z,100.00
2022-07-29T23:20:16.905Z,100.00
2022-07-29T23:22:46.205Z,100.00
2022-07-29T23:25:15.608Z,100.00
2022-07-29T23:27:44.922Z,100.00
2022-07-29T23:30:16.840Z,100.00
2022-07-29T23:32:46.175Z,100.00
2022-07-29T23:35:15.490Z,100.00
2022-07-29T23:37:44.995Z,100.00
2022-07-29T23:40:15.071Z,100.00
2022-07-29T23:42:45.784Z,100.00
2022-07-29T23:45:16.312Z,100.00
2022-07-29T23:47:45.766Z,100.00
2022-07-29T23:50:16.842Z,100.00
2022-07-29T23:52:47.273Z,100.00
2022-07-29T23:55:36.685Z,100.00
2022-07-29T23:58:06.347Z,100.00
